sensor_id;sensor_type;location;lat;lon;timestamp;P1;durP1;ratioP1;P2;durP2;ratioP2
53971;SDS011;40530;53.062;6.078;2023-05-09T00:00:45;37.15;;;22.45;;
53971;SDS011;40530;53.062;6.078;2023-05-09T00:03:11;35.78;;;21.30;;
53971;SDS011;40530;53.062;6.078;2023-05-09T00:05:38;34.35;;;20.42;;
53971;SDS011;40530;53.062;6.078;2023-05-09T00:08:04;32.17;;;21.15;;
53971;SDS011;40530;53.062;6.078;2023-05-09T00:10:30;33.78;;;21.25;;
53971;SDS011;40530;53.062;6.078;2023-05-09T00:12:56;36.08;;;21.52;;
53971;SDS011;40530;53.062;6.078;2023-05-09T00:15:23;41.95;;;21.75;;
53971;SDS011;40530;53.062;6.078;2023-05-09T00:17:50;38.53;;;22.40;;
53971;SDS011;40530;53.062;6.078;2023-05-09T00:20:16;38.17;;;22.85;;
53971;SDS011;40530;53.062;6.078;2023-05-09T00:22:42;36.80;;;21.25;;
53971;SDS011;40530;53.062;6.078;2023-05-09T00:25:08;34.95;;;21.48;;
53971;SDS011;40530;53.062;6.078;2023-05-09T00:27:34;38.45;;;23.17;;
53971;SDS011;40530;53.062;6.078;2023-05-09T00:30:00;39.53;;;21.90;;
53971;SDS011;40530;53.062;6.078;2023-05-09T00:32:27;39.28;;;22.15;;
53971;SDS011;40530;53.062;6.078;2023-05-09T00:34:53;33.08;;;20.38;;
53971;SDS011;40530;53.062;6.078;2023-05-09T00:37:19;34.30;;;21.85;;
53971;SDS011;40530;53.062;6.078;2023-05-09T00:39:48;43.00;;;23.05;;
53971;SDS011;40530;53.062;6.078;2023-05-09T00:42:15;33.08;;;21.80;;
53971;SDS011;40530;53.062;6.078;2023-05-09T00:44:41;39.90;;;24.02;;
53971;SDS011;40530;53.062;6.078;2023-05-09T00:47:07;39.17;;;23.15;;
53971;SDS011;40530;53.062;6.078;2023-05-09T00:49:33;33.92;;;22.30;;
53971;SDS011;40530;53.062;6.078;2023-05-09T00:51:59;38.33;;;22.52;;
53971;SDS011;40530;53.062;6.078;2023-05-09T00:54:26;38.47;;;22.67;;
53971;SDS011;40530;53.062;6.078;2023-05-09T00:56:52;39.30;;;23.63;;
53971;SDS011;40530;53.062;6.078;2023-05-09T00:59:18;38.75;;;23.52;;
53971;SDS011;40530;53.062;6.078;2023-05-09T01:01:45;37.15;;;23.67;;
53971;SDS011;40530;53.062;6.078;2023-05-09T01:04:11;41.72;;;23.92;;
53971;SDS011;40530;53.062;6.078;2023-05-09T01:06:51;39.15;;;23.75;;
53971;SDS011;40530;53.062;6.078;2023-05-09T01:09:23;41.67;;;23.13;;
53971;SDS011;40530;53.062;6.078;2023-05-09T01:11:54;36.92;;;23.23;;
53971;SDS011;40530;53.062;6.078;2023-05-09T01:17:00;42.92;;;23.10;;
53971;SDS011;40530;53.062;6.078;2023-05-09T01:21:53;44.45;;;25.70;;
53971;SDS011;40530;53.062;6.078;2023-05-09T01:24:30;43.17;;;26.08;;
53971;SDS011;40530;53.062;6.078;2023-05-09T01:31:57;46.00;;;25.90;;
53971;SDS011;40530;53.062;6.078;2023-05-09T01:34:25;45.67;;;26.27;;
53971;SDS011;40530;53.062;6.078;2023-05-09T01:36:51;44.30;;;25.20;;
53971;SDS011;40530;53.062;6.078;2023-05-09T01:39:19;43.97;;;24.77;;
53971;SDS011;40530;53.062;6.078;2023-05-09T01:41:46;39.30;;;24.08;;
53971;SDS011;40530;53.062;6.078;2023-05-09T01:44:13;44.63;;;25.95;;
53971;SDS011;40530;53.062;6.078;2023-05-09T01:46:40;44.05;;;26.75;;
53971;SDS011;40530;53.062;6.078;2023-05-09T01:49:07;51.25;;;27.42;;
53971;SDS011;40530;53.062;6.078;2023-05-09T01:51:33;44.25;;;26.38;;
53971;SDS011;40530;53.062;6.078;2023-05-09T01:54:01;46.17;;;26.58;;
53971;SDS011;40530;53.062;6.078;2023-05-09T01:56:28;50.05;;;27.38;;
53971;SDS011;40530;53.062;6.078;2023-05-09T01:58:55;48.92;;;26.80;;
53971;SDS011;40530;53.062;6.078;2023-05-09T02:01:22;44.60;;;24.77;;
53971;SDS011;40530;53.062;6.078;2023-05-09T02:03:49;48.35;;;25.88;;
53971;SDS011;40530;53.062;6.078;2023-05-09T02:06:19;49.17;;;27.40;;
53971;SDS011;40530;53.062;6.078;2023-05-09T02:08:46;46.85;;;26.50;;
53971;SDS011;40530;53.062;6.078;2023-05-09T02:11:13;46.25;;;28.58;;
53971;SDS011;40530;53.062;6.078;2023-05-09T02:13:39;53.95;;;30.00;;
53971;SDS011;40530;53.062;6.078;2023-05-09T02:16:05;53.53;;;29.02;;
53971;SDS011;40530;53.062;6.078;2023-05-09T02:18:32;52.75;;;29.52;;
53971;SDS011;40530;53.062;6.078;2023-05-09T02:20:59;48.22;;;28.58;;
53971;SDS011;40530;53.062;6.078;2023-05-09T02:23:26;50.90;;;28.30;;
53971;SDS011;40530;53.062;6.078;2023-05-09T02:25:52;46.72;;;26.80;;
53971;SDS011;40530;53.062;6.078;2023-05-09T02:28:19;50.97;;;29.40;;
53971;SDS011;40530;53.062;6.078;2023-05-09T02:30:47;55.20;;;30.25;;
53971;SDS011;40530;53.062;6.078;2023-05-09T02:33:14;51.78;;;27.98;;
53971;SDS011;40530;53.062;6.078;2023-05-09T02:35:40;53.45;;;30.67;;
53971;SDS011;40530;53.062;6.078;2023-05-09T02:38:07;53.55;;;29.02;;
53971;SDS011;40530;53.062;6.078;2023-05-09T02:40:33;51.20;;;28.27;;
53971;SDS011;40530;53.062;6.078;2023-05-09T02:42:59;60.17;;;31.85;;
53971;SDS011;40530;53.062;6.078;2023-05-09T02:45:25;59.15;;;30.48;;
53971;SDS011;40530;53.062;6.078;2023-05-09T02:47:51;63.80;;;34.28;;
53971;SDS011;40530;53.062;6.078;2023-05-09T02:50:17;63.42;;;33.53;;
53971;SDS011;40530;53.062;6.078;2023-05-09T02:52:43;56.28;;;31.45;;
53971;SDS011;40530;53.062;6.078;2023-05-09T02:55:09;66.68;;;33.38;;
53971;SDS011;40530;53.062;6.078;2023-05-09T02:57:35;60.35;;;32.72;;
53971;SDS011;40530;53.062;6.078;2023-05-09T03:00:02;60.80;;;33.83;;
53971;SDS011;40530;53.062;6.078;2023-05-09T03:02:28;64.60;;;32.92;;
53971;SDS011;40530;53.062;6.078;2023-05-09T03:04:54;68.22;;;32.35;;
53971;SDS011;40530;53.062;6.078;2023-05-09T03:07:23;65.00;;;34.55;;
53971;SDS011;40530;53.062;6.078;2023-05-09T03:09:49;65.13;;;34.95;;
53971;SDS011;40530;53.062;6.078;2023-05-09T03:12:15;67.75;;;33.97;;
53971;SDS011;40530;53.062;6.078;2023-05-09T03:14:41;58.63;;;31.63;;
53971;SDS011;40530;53.062;6.078;2023-05-09T03:17:07;66.22;;;34.53;;
53971;SDS011;40530;53.062;6.078;2023-05-09T03:19:33;54.75;;;31.05;;
53971;SDS011;40530;53.062;6.078;2023-05-09T03:21:59;69.70;;;35.80;;
53971;SDS011;40530;53.062;6.078;2023-05-09T03:24:25;59.78;;;33.88;;
53971;SDS011;40530;53.062;6.078;2023-05-09T03:26:54;67.72;;;34.65;;
53971;SDS011;40530;53.062;6.078;2023-05-09T03:29:20;64.22;;;33.75;;
53971;SDS011;40530;53.062;6.078;2023-05-09T03:31:46;61.13;;;33.17;;
53971;SDS011;40530;53.062;6.078;2023-05-09T03:34:12;69.57;;;35.17;;
53971;SDS011;40530;53.062;6.078;2023-05-09T03:36:41;63.28;;;33.58;;
53971;SDS011;40530;53.062;6.078;2023-05-09T03:39:08;64.18;;;33.95;;
53971;SDS011;40530;53.062;6.078;2023-05-09T03:41:34;67.15;;;34.70;;
53971;SDS011;40530;53.062;6.078;2023-05-09T03:44:01;65.68;;;34.47;;
53971;SDS011;40530;53.062;6.078;2023-05-09T03:46:27;62.88;;;32.60;;
53971;SDS011;40530;53.062;6.078;2023-05-09T03:48:53;61.58;;;33.03;;
53971;SDS011;40530;53.062;6.078;2023-05-09T03:51:19;61.53;;;33.05;;
53971;SDS011;40530;53.062;6.078;2023-05-09T03:53:46;69.07;;;35.55;;
53971;SDS011;40530;53.062;6.078;2023-05-09T03:56:12;58.47;;;32.08;;
53971;SDS011;40530;53.062;6.078;2023-05-09T03:58:38;69.85;;;35.13;;
53971;SDS011;40530;53.062;6.078;2023-05-09T04:01:04;69.13;;;35.13;;
53971;SDS011;40530;53.062;6.078;2023-05-09T04:03:30;68.18;;;35.45;;
53971;SDS011;40530;53.062;6.078;2023-05-09T04:05:57;63.67;;;34.92;;
53971;SDS011;40530;53.062;6.078;2023-05-09T04:08:23;65.53;;;35.05;;
53971;SDS011;40530;53.062;6.078;2023-05-09T04:10:49;72.38;;;36.47;;
53971;SDS011;40530;53.062;6.078;2023-05-09T04:13:16;67.22;;;35.33;;
53971;SDS011;40530;53.062;6.078;2023-05-09T04:15:42;76.15;;;33.47;;
53971;SDS011;40530;53.062;6.078;2023-05-09T04:18:09;70.15;;;34.75;;
53971;SDS011;40530;53.062;6.078;2023-05-09T04:20:35;62.90;;;32.67;;
53971;SDS011;40530;53.062;6.078;2023-05-09T04:23:01;69.00;;;35.17;;
53971;SDS011;40530;53.062;6.078;2023-05-09T04:25:27;67.07;;;35.63;;
53971;SDS011;40530;53.062;6.078;2023-05-09T04:27:53;73.80;;;36.47;;
53971;SDS011;40530;53.062;6.078;2023-05-09T04:30:19;72.43;;;36.15;;
53971;SDS011;40530;53.062;6.078;2023-05-09T04:32:46;71.40;;;36.90;;
53971;SDS011;40530;53.062;6.078;2023-05-09T04:35:13;71.85;;;38.00;;
53971;SDS011;40530;53.062;6.078;2023-05-09T04:37:39;73.72;;;37.63;;
53971;SDS011;40530;53.062;6.078;2023-05-09T04:40:05;71.38;;;36.45;;
53971;SDS011;40530;53.062;6.078;2023-05-09T04:42:33;76.93;;;38.70;;
53971;SDS011;40530;53.062;6.078;2023-05-09T04:45:00;75.88;;;37.92;;
53971;SDS011;40530;53.062;6.078;2023-05-09T04:47:26;74.82;;;40.33;;
53971;SDS011;40530;53.062;6.078;2023-05-09T04:49:52;77.75;;;38.50;;
53971;SDS011;40530;53.062;6.078;2023-05-09T04:52:18;80.38;;;38.65;;
53971;SDS011;40530;53.062;6.078;2023-05-09T04:54:44;78.50;;;39.30;;
53971;SDS011;40530;53.062;6.078;2023-05-09T04:57:10;80.53;;;37.17;;
53971;SDS011;40530;53.062;6.078;2023-05-09T04:59:36;77.10;;;38.75;;
53971;SDS011;40530;53.062;6.078;2023-05-09T05:02:02;77.75;;;39.67;;
53971;SDS011;40530;53.062;6.078;2023-05-09T05:04:28;78.43;;;37.28;;
53971;SDS011;40530;53.062;6.078;2023-05-09T05:06:54;74.65;;;36.83;;
53971;SDS011;40530;53.062;6.078;2023-05-09T05:09:20;77.65;;;37.85;;
53971;SDS011;40530;53.062;6.078;2023-05-09T05:11:46;72.43;;;35.45;;
53971;SDS011;40530;53.062;6.078;2023-05-09T05:14:12;68.97;;;35.38;;
53971;SDS011;40530;53.062;6.078;2023-05-09T05:16:38;78.38;;;36.58;;
53971;SDS011;40530;53.062;6.078;2023-05-09T05:19:04;83.68;;;43.13;;
53971;SDS011;40530;53.062;6.078;2023-05-09T05:21:30;79.43;;;39.65;;
53971;SDS011;40530;53.062;6.078;2023-05-09T05:23:56;71.78;;;37.33;;
53971;SDS011;40530;53.062;6.078;2023-05-09T05:26:22;77.95;;;39.13;;
53971;SDS011;40530;53.062;6.078;2023-05-09T05:28:49;81.25;;;40.03;;
53971;SDS011;40530;53.062;6.078;2023-05-09T05:31:19;84.53;;;39.50;;
53971;SDS011;40530;53.062;6.078;2023-05-09T05:33:45;86.65;;;39.25;;
53971;SDS011;40530;53.062;6.078;2023-05-09T05:36:11;77.85;;;39.03;;
53971;SDS011;40530;53.062;6.078;2023-05-09T05:38:37;80.53;;;39.30;;
53971;SDS011;40530;53.062;6.078;2023-05-09T05:41:04;89.90;;;42.47;;
53971;SDS011;40530;53.062;6.078;2023-05-09T05:43:30;79.93;;;38.95;;
53971;SDS011;40530;53.062;6.078;2023-05-09T05:45:56;79.93;;;40.63;;
53971;SDS011;40530;53.062;6.078;2023-05-09T05:48:22;76.90;;;40.50;;
53971;SDS011;40530;53.062;6.078;2023-05-09T05:50:48;69.10;;;38.97;;
53971;SDS011;40530;53.062;6.078;2023-05-09T05:53:14;82.13;;;40.88;;
53971;SDS011;40530;53.062;6.078;2023-05-09T05:55:40;78.90;;;40.50;;
53971;SDS011;40530;53.062;6.078;2023-05-09T05:58:06;85.32;;;40.47;;
53971;SDS011;40530;53.062;6.078;2023-05-09T06:00:32;84.72;;;41.63;;
53971;SDS011;40530;53.062;6.078;2023-05-09T06:02:58;98.00;;;54.80;;
53971;SDS011;40530;53.062;6.078;2023-05-09T06:05:24;76.85;;;40.58;;
53971;SDS011;40530;53.062;6.078;2023-05-09T06:07:52;76.50;;;38.35;;
53971;SDS011;40530;53.062;6.078;2023-05-09T06:10:18;81.28;;;41.70;;
53971;SDS011;40530;53.062;6.078;2023-05-09T06:12:44;76.47;;;41.03;;
53971;SDS011;40530;53.062;6.078;2023-05-09T06:15:10;81.22;;;43.00;;
53971;SDS011;40530;53.062;6.078;2023-05-09T06:17:36;86.03;;;43.65;;
53971;SDS011;40530;53.062;6.078;2023-05-09T06:20:02;82.03;;;42.95;;
53971;SDS011;40530;53.062;6.078;2023-05-09T06:22:28;87.93;;;44.00;;
53971;SDS011;40530;53.062;6.078;2023-05-09T06:24:54;92.32;;;45.78;;
53971;SDS011;40530;53.062;6.078;2023-05-09T06:27:20;93.70;;;45.67;;
53971;SDS011;40530;53.062;6.078;2023-05-09T06:29:46;82.00;;;45.10;;
53971;SDS011;40530;53.062;6.078;2023-05-09T06:32:12;92.93;;;46.08;;
53971;SDS011;40530;53.062;6.078;2023-05-09T06:34:38;94.47;;;48.03;;
53971;SDS011;40530;53.062;6.078;2023-05-09T06:37:05;91.97;;;47.65;;
53971;SDS011;40530;53.062;6.078;2023-05-09T06:39:32;97.13;;;47.63;;
53971;SDS011;40530;53.062;6.078;2023-05-09T06:41:58;89.55;;;46.65;;
53971;SDS011;40530;53.062;6.078;2023-05-09T06:44:24;89.72;;;47.53;;
53971;SDS011;40530;53.062;6.078;2023-05-09T06:46:50;88.25;;;45.25;;
53971;SDS011;40530;53.062;6.078;2023-05-09T06:49:16;90.30;;;47.35;;
53971;SDS011;40530;53.062;6.078;2023-05-09T06:51:42;91.55;;;47.58;;
53971;SDS011;40530;53.062;6.078;2023-05-09T06:54:08;473.27;;;352.90;;
53971;SDS011;40530;53.062;6.078;2023-05-09T06:56:35;97.40;;;53.75;;
53971;SDS011;40530;53.062;6.078;2023-05-09T06:59:01;90.90;;;47.60;;
53971;SDS011;40530;53.062;6.078;2023-05-09T07:01:27;93.03;;;45.80;;
53971;SDS011;40530;53.062;6.078;2023-05-09T07:03:53;86.90;;;46.40;;
53971;SDS011;40530;53.062;6.078;2023-05-09T07:06:19;92.15;;;46.92;;
53971;SDS011;40530;53.062;6.078;2023-05-09T07:08:45;92.55;;;48.47;;
53971;SDS011;40530;53.062;6.078;2023-05-09T07:11:11;90.03;;;46.80;;
53971;SDS011;40530;53.062;6.078;2023-05-09T07:13:37;83.75;;;47.75;;
53971;SDS011;40530;53.062;6.078;2023-05-09T07:16:03;85.35;;;47.45;;
53971;SDS011;40530;53.062;6.078;2023-05-09T07:18:29;87.97;;;47.75;;
53971;SDS011;40530;53.062;6.078;2023-05-09T07:20:55;79.32;;;44.53;;
53971;SDS011;40530;53.062;6.078;2023-05-09T07:23:21;85.30;;;45.70;;
53971;SDS011;40530;53.062;6.078;2023-05-09T07:25:47;92.38;;;49.08;;
53971;SDS011;40530;53.062;6.078;2023-05-09T07:28:13;88.70;;;47.28;;
53971;SDS011;40530;53.062;6.078;2023-05-09T07:30:39;92.22;;;48.65;;
53971;SDS011;40530;53.062;6.078;2023-05-09T07:33:07;85.70;;;47.95;;
53971;SDS011;40530;53.062;6.078;2023-05-09T07:35:33;86.60;;;46.67;;
53971;SDS011;40530;53.062;6.078;2023-05-09T07:37:59;89.45;;;48.85;;
53971;SDS011;40530;53.062;6.078;2023-05-09T07:40:25;87.18;;;48.88;;
53971;SDS011;40530;53.062;6.078;2023-05-09T07:42:51;76.13;;;42.67;;
53971;SDS011;40530;53.062;6.078;2023-05-09T07:45:19;80.03;;;43.53;;
53971;SDS011;40530;53.062;6.078;2023-05-09T07:47:45;72.30;;;40.65;;
53971;SDS011;40530;53.062;6.078;2023-05-09T07:50:10;69.68;;;40.13;;
53971;SDS011;40530;53.062;6.078;2023-05-09T07:52:36;69.13;;;39.75;;
53971;SDS011;40530;53.062;6.078;2023-05-09T07:55:03;70.45;;;40.65;;
53971;SDS011;40530;53.062;6.078;2023-05-09T07:57:29;65.35;;;38.65;;
53971;SDS011;40530;53.062;6.078;2023-05-09T07:59:55;65.35;;;36.58;;
53971;SDS011;40530;53.062;6.078;2023-05-09T08:02:21;63.55;;;37.33;;
53971;SDS011;40530;53.062;6.078;2023-05-09T08:04:47;62.67;;;36.92;;
53971;SDS011;40530;53.062;6.078;2023-05-09T08:07:13;55.05;;;33.47;;
53971;SDS011;40530;53.062;6.078;2023-05-09T08:09:39;55.92;;;34.10;;
53971;SDS011;40530;53.062;6.078;2023-05-09T08:12:05;55.15;;;33.85;;
53971;SDS011;40530;53.062;6.078;2023-05-09T08:14:31;75.60;;;48.05;;
53971;SDS011;40530;53.062;6.078;2023-05-09T08:16:57;46.45;;;28.08;;
53971;SDS011;40530;53.062;6.078;2023-05-09T08:19:23;42.63;;;24.98;;
53971;SDS011;40530;53.062;6.078;2023-05-09T08:21:50;38.28;;;23.40;;
53971;SDS011;40530;53.062;6.078;2023-05-09T08:24:16;40.95;;;25.08;;
53971;SDS011;40530;53.062;6.078;2023-05-09T08:26:42;37.25;;;24.02;;
53971;SDS011;40530;53.062;6.078;2023-05-09T08:29:09;32.03;;;21.00;;
53971;SDS011;40530;53.062;6.078;2023-05-09T08:31:35;35.45;;;20.33;;
53971;SDS011;40530;53.062;6.078;2023-05-09T08:34:01;35.30;;;20.75;;
53971;SDS011;40530;53.062;6.078;2023-05-09T08:36:27;30.80;;;19.20;;
53971;SDS011;40530;53.062;6.078;2023-05-09T08:38:53;34.92;;;18.38;;
53971;SDS011;40530;53.062;6.078;2023-05-09T08:41:19;29.05;;;18.10;;
53971;SDS011;40530;53.062;6.078;2023-05-09T08:43:47;27.63;;;17.88;;
53971;SDS011;40530;53.062;6.078;2023-05-09T08:46:13;30.35;;;17.50;;
53971;SDS011;40530;53.062;6.078;2023-05-09T08:48:41;25.23;;;16.08;;
53971;SDS011;40530;53.062;6.078;2023-05-09T08:51:07;28.50;;;15.90;;
53971;SDS011;40530;53.062;6.078;2023-05-09T08:53:35;24.08;;;15.55;;
53971;SDS011;40530;53.062;6.078;2023-05-09T08:56:02;24.63;;;16.67;;
53971;SDS011;40530;53.062;6.078;2023-05-09T08:58:29;26.85;;;17.48;;
53971;SDS011;40530;53.062;6.078;2023-05-09T09:00:55;28.92;;;16.90;;
53971;SDS011;40530;53.062;6.078;2023-05-09T09:03:22;26.02;;;16.75;;
53971;SDS011;40530;53.062;6.078;2023-05-09T09:05:50;28.48;;;16.88;;
53971;SDS011;40530;53.062;6.078;2023-05-09T09:08:16;25.35;;;16.80;;
53971;SDS011;40530;53.062;6.078;2023-05-09T09:10:43;24.70;;;15.75;;
53971;SDS011;40530;53.062;6.078;2023-05-09T09:13:13;25.05;;;14.93;;
53971;SDS011;40530;53.062;6.078;2023-05-09T09:15:40;40.50;;;25.67;;
53971;SDS011;40530;53.062;6.078;2023-05-09T09:18:07;25.80;;;16.05;;
53971;SDS011;40530;53.062;6.078;2023-05-09T09:20:39;23.13;;;16.63;;
53971;SDS011;40530;53.062;6.078;2023-05-09T09:23:07;31.80;;;16.25;;
53971;SDS011;40530;53.062;6.078;2023-05-09T09:25:36;24.17;;;15.85;;
53971;SDS011;40530;53.062;6.078;2023-05-09T09:28:03;23.20;;;15.40;;
53971;SDS011;40530;53.062;6.078;2023-05-09T09:30:29;29.58;;;16.73;;
53971;SDS011;40530;53.062;6.078;2023-05-09T09:32:57;28.02;;;16.70;;
53971;SDS011;40530;53.062;6.078;2023-05-09T09:35:24;27.63;;;16.58;;
53971;SDS011;40530;53.062;6.078;2023-05-09T09:37:50;28.67;;;16.85;;
53971;SDS011;40530;53.062;6.078;2023-05-09T09:40:21;24.90;;;15.18;;
53971;SDS011;40530;53.062;6.078;2023-05-09T09:42:50;26.92;;;15.23;;
53971;SDS011;40530;53.062;6.078;2023-05-09T09:45:17;26.58;;;15.15;;
53971;SDS011;40530;53.062;6.078;2023-05-09T09:47:44;29.65;;;16.98;;
53971;SDS011;40530;53.062;6.078;2023-05-09T09:50:14;25.52;;;17.52;;
53971;SDS011;40530;53.062;6.078;2023-05-09T09:52:50;24.60;;;16.08;;
53971;SDS011;40530;53.062;6.078;2023-05-09T09:55:17;26.70;;;16.15;;
53971;SDS011;40530;53.062;6.078;2023-05-09T09:57:45;22.08;;;15.00;;
53971;SDS011;40530;53.062;6.078;2023-05-09T10:00:13;24.25;;;16.20;;
53971;SDS011;40530;53.062;6.078;2023-05-09T10:02:46;27.60;;;15.80;;
53971;SDS011;40530;53.062;6.078;2023-05-09T10:05:23;28.25;;;15.32;;
53971;SDS011;40530;53.062;6.078;2023-05-09T10:07:54;25.95;;;15.60;;
53971;SDS011;40530;53.062;6.078;2023-05-09T10:10:21;30.60;;;16.20;;
53971;SDS011;40530;53.062;6.078;2023-05-09T10:12:47;25.42;;;15.57;;
53971;SDS011;40530;53.062;6.078;2023-05-09T10:15:15;25.77;;;16.52;;
53971;SDS011;40530;53.062;6.078;2023-05-09T10:17:46;20.85;;;15.07;;
53971;SDS011;40530;53.062;6.078;2023-05-09T10:20:12;23.02;;;15.65;;
53971;SDS011;40530;53.062;6.078;2023-05-09T10:22:39;24.83;;;16.50;;
53971;SDS011;40530;53.062;6.078;2023-05-09T10:25:07;20.60;;;15.35;;
53971;SDS011;40530;53.062;6.078;2023-05-09T10:27:37;23.17;;;15.70;;
53971;SDS011;40530;53.062;6.078;2023-05-09T10:30:06;22.80;;;15.70;;
53971;SDS011;40530;53.062;6.078;2023-05-09T10:32:47;23.23;;;15.02;;
53971;SDS011;40530;53.062;6.078;2023-05-09T10:35:15;21.95;;;14.82;;
53971;SDS011;40530;53.062;6.078;2023-05-09T10:37:41;26.92;;;15.73;;
53971;SDS011;40530;53.062;6.078;2023-05-09T10:40:08;24.40;;;15.35;;
53971;SDS011;40530;53.062;6.078;2023-05-09T10:42:42;20.50;;;16.52;;
53971;SDS011;40530;53.062;6.078;2023-05-09T10:45:11;22.90;;;16.08;;
53971;SDS011;40530;53.062;6.078;2023-05-09T10:47:38;24.40;;;14.88;;
53971;SDS011;40530;53.062;6.078;2023-05-09T10:50:08;24.42;;;15.02;;
53971;SDS011;40530;53.062;6.078;2023-05-09T10:53:03;28.65;;;17.65;;
53971;SDS011;40530;53.062;6.078;2023-05-09T10:55:20;25.02;;;18.30;;
53971;SDS011;40530;53.062;6.078;2023-05-09T10:57:51;20.92;;;14.32;;
53971;SDS011;40530;53.062;6.078;2023-05-09T11:00:23;20.35;;;14.13;;
53971;SDS011;40530;53.062;6.078;2023-05-09T11:03:05;27.73;;;14.50;;
53971;SDS011;40530;53.062;6.078;2023-05-09T11:05:40;23.27;;;14.15;;
53971;SDS011;40530;53.062;6.078;2023-05-09T11:10:49;22.15;;;14.32;;
53971;SDS011;40530;53.062;6.078;2023-05-09T11:13:19;22.70;;;15.13;;
53971;SDS011;40530;53.062;6.078;2023-05-09T11:18:13;19.80;;;14.32;;
53971;SDS011;40530;53.062;6.078;2023-05-09T11:20:42;134.63;;;89.45;;
53971;SDS011;40530;53.062;6.078;2023-05-09T11:23:09;118.15;;;78.85;;
53971;SDS011;40530;53.062;6.078;2023-05-09T11:25:41;23.00;;;15.23;;
53971;SDS011;40530;53.062;6.078;2023-05-09T11:28:07;21.13;;;14.23;;
53971;SDS011;40530;53.062;6.078;2023-05-09T11:30:37;21.75;;;15.27;;
53971;SDS011;40530;53.062;6.078;2023-05-09T11:33:03;22.58;;;14.90;;
53971;SDS011;40530;53.062;6.078;2023-05-09T11:35:31;19.10;;;13.77;;
53971;SDS011;40530;53.062;6.078;2023-05-09T11:38:02;21.80;;;14.88;;
53971;SDS011;40530;53.062;6.078;2023-05-09T11:40:29;25.65;;;15.52;;
53971;SDS011;40530;53.062;6.078;2023-05-09T11:42:55;21.88;;;15.52;;
53971;SDS011;40530;53.062;6.078;2023-05-09T11:45:22;21.85;;;15.68;;
53971;SDS011;40530;53.062;6.078;2023-05-09T11:47:49;24.42;;;16.20;;
53971;SDS011;40530;53.062;6.078;2023-05-09T11:50:16;27.08;;;17.20;;
53971;SDS011;40530;53.062;6.078;2023-05-09T11:52:43;22.58;;;17.00;;
53971;SDS011;40530;53.062;6.078;2023-05-09T11:55:11;26.95;;;18.15;;
53971;SDS011;40530;53.062;6.078;2023-05-09T11:57:39;26.77;;;17.50;;
53971;SDS011;40530;53.062;6.078;2023-05-09T12:00:05;25.67;;;17.30;;
53971;SDS011;40530;53.062;6.078;2023-05-09T12:02:33;25.30;;;18.67;;
53971;SDS011;40530;53.062;6.078;2023-05-09T12:05:09;32.92;;;18.17;;
53971;SDS011;40530;53.062;6.078;2023-05-09T12:07:36;26.25;;;18.17;;
53971;SDS011;40530;53.062;6.078;2023-05-09T12:10:13;26.92;;;18.65;;
53971;SDS011;40530;53.062;6.078;2023-05-09T12:12:46;25.20;;;18.00;;
53971;SDS011;40530;53.062;6.078;2023-05-09T12:15:12;35.95;;;19.10;;
53971;SDS011;40530;53.062;6.078;2023-05-09T12:17:39;29.30;;;18.50;;
53971;SDS011;40530;53.062;6.078;2023-05-09T12:20:05;22.77;;;17.60;;
53971;SDS011;40530;53.062;6.078;2023-05-09T12:22:32;25.55;;;18.13;;
53971;SDS011;40530;53.062;6.078;2023-05-09T12:24:59;26.08;;;18.42;;
53971;SDS011;40530;53.062;6.078;2023-05-09T12:27:26;23.17;;;17.25;;
53971;SDS011;40530;53.062;6.078;2023-05-09T12:29:53;24.58;;;17.13;;
53971;SDS011;40530;53.062;6.078;2023-05-09T12:32:19;22.83;;;16.50;;
53971;SDS011;40530;53.062;6.078;2023-05-09T12:34:45;18.55;;;16.20;;
53971;SDS011;40530;53.062;6.078;2023-05-09T12:37:16;21.17;;;15.35;;
53971;SDS011;40530;53.062;6.078;2023-05-09T12:40:02;18.38;;;15.63;;
53971;SDS011;40530;53.062;6.078;2023-05-09T12:42:29;19.85;;;15.15;;
53971;SDS011;40530;53.062;6.078;2023-05-09T12:44:55;15.45;;;12.95;;
53971;SDS011;40530;53.062;6.078;2023-05-09T12:47:24;18.35;;;12.10;;
53971;SDS011;40530;53.062;6.078;2023-05-09T12:49:51;16.25;;;11.52;;
53971;SDS011;40530;53.062;6.078;2023-05-09T12:52:17;14.20;;;10.48;;
53971;SDS011;40530;53.062;6.078;2023-05-09T12:54:44;13.93;;;10.98;;
53971;SDS011;40530;53.062;6.078;2023-05-09T12:57:19;14.27;;;11.27;;
53971;SDS011;40530;53.062;6.078;2023-05-09T12:59:46;12.13;;;10.73;;
53971;SDS011;40530;53.062;6.078;2023-05-09T13:02:12;14.55;;;11.32;;
53971;SDS011;40530;53.062;6.078;2023-05-09T13:04:38;13.30;;;10.77;;
53971;SDS011;40530;53.062;6.078;2023-05-09T13:07:08;12.95;;;10.75;;
53971;SDS011;40530;53.062;6.078;2023-05-09T13:09:34;13.82;;;10.75;;
53971;SDS011;40530;53.062;6.078;2023-05-09T13:12:01;11.45;;;9.93;;
53971;SDS011;40530;53.062;6.078;2023-05-09T13:14:33;9.77;;;8.55;;
53971;SDS011;40530;53.062;6.078;2023-05-09T13:16:59;8.70;;;7.75;;
53971;SDS011;40530;53.062;6.078;2023-05-09T13:19:25;10.63;;;8.93;;
53971;SDS011;40530;53.062;6.078;2023-05-09T13:21:53;9.25;;;8.27;;
53971;SDS011;40530;53.062;6.078;2023-05-09T13:24:19;9.48;;;8.07;;
53971;SDS011;40530;53.062;6.078;2023-05-09T13:26:45;12.55;;;8.93;;
53971;SDS011;40530;53.062;6.078;2023-05-09T13:29:11;9.88;;;7.43;;
53971;SDS011;40530;53.062;6.078;2023-05-09T13:31:37;10.15;;;6.68;;
53971;SDS011;40530;53.062;6.078;2023-05-09T13:34:03;7.68;;;6.25;;
53971;SDS011;40530;53.062;6.078;2023-05-09T13:36:29;9.45;;;6.07;;
53971;SDS011;40530;53.062;6.078;2023-05-09T13:38:56;5.75;;;4.97;;
53971;SDS011;40530;53.062;6.078;2023-05-09T13:41:22;6.43;;;4.75;;
53971;SDS011;40530;53.062;6.078;2023-05-09T13:43:48;5.65;;;5.03;;
53971;SDS011;40530;53.062;6.078;2023-05-09T13:46:14;6.80;;;4.57;;
53971;SDS011;40530;53.062;6.078;2023-05-09T13:48:40;5.88;;;4.05;;
53971;SDS011;40530;53.062;6.078;2023-05-09T13:51:06;5.65;;;4.43;;
53971;SDS011;40530;53.062;6.078;2023-05-09T13:53:33;6.50;;;4.32;;
53971;SDS011;40530;53.062;6.078;2023-05-09T13:55:59;4.57;;;4.18;;
53971;SDS011;40530;53.062;6.078;2023-05-09T13:58:26;7.07;;;4.93;;
53971;SDS011;40530;53.062;6.078;2023-05-09T14:00:52;5.20;;;4.35;;
53971;SDS011;40530;53.062;6.078;2023-05-09T14:03:18;5.47;;;4.93;;
53971;SDS011;40530;53.062;6.078;2023-05-09T14:05:44;4.88;;;4.43;;
53971;SDS011;40530;53.062;6.078;2023-05-09T14:08:10;4.40;;;4.00;;
53971;SDS011;40530;53.062;6.078;2023-05-09T14:10:36;4.65;;;4.20;;
53971;SDS011;40530;53.062;6.078;2023-05-09T14:13:02;5.20;;;4.40;;
53971;SDS011;40530;53.062;6.078;2023-05-09T14:15:28;5.88;;;4.20;;
53971;SDS011;40530;53.062;6.078;2023-05-09T14:17:54;3.97;;;3.58;;
53971;SDS011;40530;53.062;6.078;2023-05-09T14:20:20;5.60;;;3.75;;
53971;SDS011;40530;53.062;6.078;2023-05-09T14:22:46;4.43;;;3.85;;
53971;SDS011;40530;53.062;6.078;2023-05-09T14:25:12;4.32;;;3.70;;
53971;SDS011;40530;53.062;6.078;2023-05-09T14:27:38;3.88;;;3.50;;
53971;SDS011;40530;53.062;6.078;2023-05-09T14:30:05;6.50;;;3.60;;
53971;SDS011;40530;53.062;6.078;2023-05-09T14:32:31;4.13;;;3.72;;
53971;SDS011;40530;53.062;6.078;2023-05-09T14:34:57;4.13;;;3.70;;
53971;SDS011;40530;53.062;6.078;2023-05-09T14:37:23;4.38;;;3.97;;